Aérodrome :
LOGIN :

S'inscrire | Disclaimer

   EN    FR    IT 

 










Légende :    VFR   VFR Marginal   IFR   IFR Intensif   IFR Très Intensif
Visi : 
Plafond : 
>= 8 km
>= 3000ft
5 à 8 km
1000 à 3000 ft
1500m à 5 km
500 à 1000 ft
800 à 1500m
200 à 500 ft
< 800m
< 200 ft
Symboles :   Orages  Brouillard  Fortes neiges  Fortes précipitations  Vent > 20 kt
SIGMETs :   Divers  Orages  Givrage  Turbulence  Onde Orograph.  Cendres Volcan.







- Altitude de l'aérodrome : 171 ft
- Code IATA : EGC
- Voir les cartes d'approche


LFBE - Bergerac

DERNIER METAR :
  • 181500Z AUTO 13006KT 050V160 9999 FEW003 31/15 Q1009 NOSIG

METARs EXPIRÉS :
  • 181430Z AUTO 16005KT 120V210 CAVOK 30/14 Q1009 NOSIG
  • 181400Z AUTO 14005KT 090V190 CAVOK 31/15 Q1009 NOSIG
  • 181330Z AUTO 16005KT 120V190 CAVOK 30/15 Q1010 NOSIG
  • 181300Z AUTO 13007KT 090V180 CAVOK 29/14 Q1010 NOSIG
  • 181230Z AUTO 13007KT 090V170 CAVOK 29/14 Q1010 NOSIG
  • 181200Z AUTO 12006KT 080V170 CAVOK 28/14 Q1010 NOSIG

TAF TAF LFBE
Valide du 18 à 12h jusqu'au 19 à 12h UTC


181100Z 1812/1912 15010KT CAVOK
TEMPO 1821/1824 13015G25KT SHRA BKN080TCU
PROB30
TEMPO 1821/1824 13020G30KT 4000 TSRAGR SCT015 BKN050CB
BECMG 1900/1902 28008KT
Pas de NOTAMs connus pour ce terrain.



MET'MAP, la Météo Aéronautique d'un coup d'oeil ! - Copyright ORBIFLY Décembre 2007 - Disclaimer

ORBIFLY MET'MAP TEAM :

Programmation & Développement : Alexandra Zaïnal
Conception & Développement : Baudouin d'Aumeries
Co-Programmation & Développement : Marc-Olivier Méhu
Soutien technique & logistique : Manuel Goepfert

Contact : metmap@orbifly.com




SOURCES & CREDITS :

   NOAA